Time;durP1;ratioP1;P1;durP2;ratioP2;P2;SDS_P1;SDS_P2;PMS_P1;PMS_P2;Temp;Humidity;BMP_temperature;BMP_pressure;BME280_temperature;BME280_humidity;BME280_pressure;Samples;Min_cycle;Max_cycle;Signal;HPM_P1;HPM_P2
2023/09/09 00:01:48;;;;;;;15.17;13.67;;;;;;;;;;5049674;28;20103;-61
2023/09/09 00:04:13;;;;;;;13.82;12.40;;;;;;;;;;5051702;28;20036;-61
2023/09/09 00:06:38;;;;;;;13.25;12.05;;;;;;;;;;5049440;28;20245;-61
2023/09/09 00:09:04;;;;;;;13.27;11.98;;;;;;;;;;5051683;28;20025;-61
2023/09/09 00:11:30;;;;;;;34.47;15.45;;;;;;;;;;5060482;28;20490;-61
2023/09/09 00:13:56;;;;;;;14.30;12.98;;;;;;;;;;5071192;28;20052;-63
2023/09/09 00:16:21;;;;;;;16.40;14.80;;;;;;;;;;5064916;28;20036;-61
2023/09/09 00:18:46;;;;;;;17.73;16.02;;;;;;;;;;5070891;28;20051;-61
2023/09/09 00:21:14;;;;;;;18.25;16.35;;;;;;;;;;5069345;28;20029;-61
2023/09/09 00:23:39;;;;;;;13.05;11.75;;;;;;;;;;5070958;28;20028;-61
2023/09/09 00:26:04;;;;;;;14.33;9.37;;;;;;;;;;5069418;28;20491;-61
2023/09/09 00:28:29;;;;;;;16.27;11.43;;;;;;;;;;5070242;28;20247;-61
2023/09/09 00:30:54;;;;;;;14.38;11.82;;;;;;;;;;5069767;28;20033;-61
2023/09/09 00:33:19;;;;;;;13.40;12.03;;;;;;;;;;5070808;28;20454;-61
2023/09/09 00:35:44;;;;;;;12.97;11.67;;;;;;;;;;5068690;28;20426;-61
2023/09/09 00:38:10;;;;;;;11.65;10.48;;;;;;;;;;5049144;28;20040;-62
2023/09/09 00:40:35;;;;;;;11.35;10.23;;;;;;;;;;5050430;28;20017;-61
2023/09/09 00:43:01;;;;;;;11.87;10.57;;;;;;;;;;5048642;28;20123;-61
2023/09/09 00:45:27;;;;;;;10.83;9.73;;;;;;;;;;5049281;28;20524;-61
2023/09/09 00:47:52;;;;;;;12.85;11.55;;;;;;;;;;5065361;28;20447;-61
2023/09/09 00:50:18;;;;;;;10.63;9.63;;;;;;;;;;5060018;28;20096;-62
2023/09/09 00:52:44;;;;;;;12.52;10.07;;;;;;;;;;5048718;28;20041;-61
2023/09/09 00:55:12;;;;;;;20.38;13.35;;;;;;;;;;5059133;28;20024;-62
2023/09/09 00:57:38;;;;;;;15.50;13.95;;;;;;;;;;5051930;28;20037;-61
2023/09/09 01:00:09;;;;;;;16.50;13.93;;;;;;;;;;5050514;28;20017;-61
2023/09/09 01:02:35;;;;;;;14.55;11.77;;;;;;;;;;5048979;28;20135;-61
2023/09/09 01:05:00;;;;;;;19.08;17.02;;;;;;;;;;5049708;28;20468;-61
2023/09/09 01:07:26;;;;;;;13.37;12.00;;;;;;;;;;5057743;28;20043;-61
2023/09/09 01:09:52;;;;;;;17.20;14.70;;;;;;;;;;5050405;28;20086;-61
2023/09/09 01:12:17;;;;;;;16.95;13.40;;;;;;;;;;5059722;28;20051;-61
2023/09/09 01:14:42;;;;;;;19.23;17.27;;;;;;;;;;5069728;28;20022;-60
2023/09/09 01:17:07;;;;;;;18.50;16.53;;;;;;;;;;5061986;28;20044;-60
2023/09/09 01:19:33;;;;;;;18.27;16.30;;;;;;;;;;5069707;28;20023;-60
2023/09/09 01:22:06;;;;;;;22.20;19.63;;;;;;;;;;5068224;28;20039;-60
2023/09/09 01:24:32;;;;;;;21.27;19.05;;;;;;;;;;5069958;28;20474;-61
2023/09/09 01:26:57;;;;;;;23.50;20.25;;;;;;;;;;5068352;28;20043;-61
2023/09/09 01:29:23;;;;;;;21.10;19.02;;;;;;;;;;5069828;28;20577;-61
2023/09/09 01:31:48;;;;;;;21.03;18.93;;;;;;;;;;5068622;28;20040;-61
2023/09/09 01:34:13;;;;;;;18.65;16.75;;;;;;;;;;5070220;28;20465;-60
2023/09/09 01:36:38;;;;;;;20.10;17.95;;;;;;;;;;5055690;28;20033;-60
2023/09/09 01:39:03;;;;;;;19.70;17.50;;;;;;;;;;5049495;28;20057;-60
2023/09/09 01:41:28;;;;;;;20.80;17.83;;;;;;;;;;5059252;28;20052;-60
2023/09/09 01:43:54;;;;;;;16.58;14.77;;;;;;;;;;5069914;28;20028;-60
2023/09/09 01:46:19;;;;;;;25.63;15.80;;;;;;;;;;5059659;28;20118;-60
2023/09/09 01:48:44;;;;;;;23.13;20.13;;;;;;;;;;5049364;28;20020;-60
2023/09/09 01:51:09;;;;;;;19.10;17.10;;;;;;;;;;5047905;28;20086;-60
2023/09/09 01:53:35;;;;;;;18.67;16.80;;;;;;;;;;5052189;28;20036;-61
2023/09/09 01:56:00;;;;;;;20.30;15.85;;;;;;;;;;5051940;28;20083;-61
2023/09/09 01:58:25;;;;;;;27.15;19.55;;;;;;;;;;5055699;28;20050;-61
2023/09/09 02:00:51;;;;;;;21.03;18.57;;;;;;;;;;5049105;28;20531;-61
2023/09/09 02:03:16;;;;;;;19.47;17.43;;;;;;;;;;5033859;28;20052;-60
2023/09/09 02:05:41;;;;;;;21.75;18.48;;;;;;;;;;5039056;28;20040;-64
2023/09/09 02:08:06;;;;;;;28.10;18.77;;;;;;;;;;5074343;28;20052;-62
2023/09/09 02:10:31;;;;;;;22.13;19.50;;;;;;;;;;5072092;28;20515;-60
2023/09/09 02:12:56;;;;;;;24.17;21.67;;;;;;;;;;5072373;28;20024;-60
2023/09/09 02:15:22;;;;;;;21.52;18.95;;;;;;;;;;5071854;28;20582;-60
2023/09/09 02:17:47;;;;;;;22.27;20.20;;;;;;;;;;5073255;28;20032;-61
2023/09/09 02:20:12;;;;;;;24.30;21.75;;;;;;;;;;5071432;28;20415;-60
2023/09/09 02:22:37;;;;;;;24.57;20.97;;;;;;;;;;5073337;28;20016;-61
2023/09/09 02:25:03;;;;;;;24.93;19.67;;;;;;;;;;5073193;28;20060;-62
2023/09/09 02:27:28;;;;;;;24.13;18.02;;;;;;;;;;5070297;28;20108;-61
2023/09/09 02:29:53;;;;;;;24.48;22.08;;;;;;;;;;5053538;28;20017;-61
2023/09/09 02:32:19;;;;;;;30.87;24.87;;;;;;;;;;5069491;28;20411;-61
2023/09/09 02:34:44;;;;;;;23.17;20.67;;;;;;;;;;5072892;28;20981;-61
2023/09/09 02:37:14;;;;;;;22.90;20.58;;;;;;;;;;5071319;28;20044;-61
2023/09/09 02:39:39;;;;;;;21.90;19.77;;;;;;;;;;5072449;28;20048;-64
2023/09/09 02:42:04;;;;;;;16.80;15.17;;;;;;;;;;5071332;28;20446;-61
2023/09/09 02:44:30;;;;;;;19.75;17.75;;;;;;;;;;5072857;28;20806;-67
2023/09/09 02:46:55;;;;;;;17.20;15.55;;;;;;;;;;5071381;28;20568;-60
2023/09/09 02:49:20;;;;;;;21.02;16.63;;;;;;;;;;5072497;28;20021;-61
2023/09/09 02:51:45;;;;;;;20.60;17.95;;;;;;;;;;5071334;28;20037;-60
2023/09/09 02:54:10;;;;;;;17.45;15.60;;;;;;;;;;5072778;28;20452;-61
2023/09/09 02:56:35;;;;;;;17.83;16.03;;;;;;;;;;5054004;28;20053;-60
2023/09/09 02:59:00;;;;;;;19.58;16.40;;;;;;;;;;5032955;28;20022;-60
2023/09/09 03:01:25;;;;;;;16.45;14.75;;;;;;;;;;5045052;28;20478;-61
2023/09/09 03:03:51;;;;;;;20.65;18.55;;;;;;;;;;5072112;28;20023;-61
2023/09/09 03:06:16;;;;;;;17.90;16.10;;;;;;;;;;5070798;28;20112;-61
2023/09/09 03:08:41;;;;;;;23.80;20.17;;;;;;;;;;5072168;28;20383;-61
2023/09/09 03:11:06;;;;;;;21.57;19.37;;;;;;;;;;5070568;28;20044;-61
2023/09/09 03:13:31;;;;;;;25.47;21.70;;;;;;;;;;5072213;28;20035;-63
2023/09/09 03:15:57;;;;;;;24.47;21.97;;;;;;;;;;5070624;28;20070;-61
2023/09/09 03:18:22;;;;;;;26.73;23.95;;;;;;;;;;5072374;28;20471;-58
2023/09/09 03:20:47;;;;;;;25.07;21.77;;;;;;;;;;5070682;28;20021;-60
2023/09/09 03:23:12;;;;;;;31.23;27.93;;;;;;;;;;5072318;28;20023;-60
2023/09/09 03:25:37;;;;;;;29.38;26.20;;;;;;;;;;5070243;28;20087;-60
2023/09/09 03:28:02;;;;;;;33.17;26.67;;;;;;;;;;5072517;28;20025;-61
2023/09/09 03:30:28;;;;;;;28.85;25.88;;;;;;;;;;5070670;28;20026;-59
2023/09/09 03:32:53;;;;;;;26.38;20.63;;;;;;;;;;5072066;28;20027;-60
2023/09/09 03:35:18;;;;;;;17.70;15.83;;;;;;;;;;5069892;28;20034;-60
2023/09/09 03:37:43;;;;;;;24.77;15.70;;;;;;;;;;5070685;28;20025;-60
2023/09/09 03:40:09;;;;;;;19.10;17.10;;;;;;;;;;5072009;28;20036;-60
2023/09/09 03:42:34;;;;;;;19.63;17.50;;;;;;;;;;5070003;28;20130;-60
2023/09/09 03:44:59;;;;;;;17.60;15.70;;;;;;;;;;5055438;28;20032;-60
2023/09/09 03:47:25;;;;;;;21.93;18.73;;;;;;;;;;5070401;28;20037;-60
2023/09/09 03:49:50;;;;;;;19.88;17.80;;;;;;;;;;5071423;28;20445;-60
2023/09/09 03:52:15;;;;;;;22.65;20.45;;;;;;;;;;5069981;28;20032;-60
2023/09/09 03:54:41;;;;;;;21.80;19.52;;;;;;;;;;5071254;28;20024;-64
2023/09/09 03:57:06;;;;;;;21.85;18.88;;;;;;;;;;5069684;28;20036;-60
2023/09/09 03:59:33;;;;;;;28.48;24.25;;;;;;;;;;5071589;28;20021;-60
2023/09/09 04:01:58;;;;;;;26.67;23.00;;;;;;;;;;5070352;28;20032;-60
2023/09/09 04:04:23;;;;;;;24.50;21.58;;;;;;;;;;5071003;28;20639;-60
2023/09/09 04:06:48;;;;;;;26.23;23.45;;;;;;;;;;5069789;28;20045;-60
2023/09/09 04:09:22;;;;;;;27.58;24.73;;;;;;;;;;5071615;28;20535;-60
2023/09/09 04:11:47;;;;;;;26.33;23.60;;;;;;;;;;5069325;28;20033;-62
2023/09/09 04:14:12;;;;;;;23.02;17.70;;;;;;;;;;5048447;28;20033;-60
2023/09/09 04:16:37;;;;;;;18.27;15.10;;;;;;;;;;5040639;28;20208;-60
2023/09/09 04:19:02;;;;;;;17.98;16.20;;;;;;;;;;5050908;28;20027;-60
2023/09/09 04:21:28;;;;;;;26.07;23.27;;;;;;;;;;5060247;28;20062;-60
2023/09/09 04:23:53;;;;;;;27.13;21.60;;;;;;;;;;5070949;28;20035;-60
2023/09/09 04:26:18;;;;;;;28.80;24.23;;;;;;;;;;5069306;28;20033;-61
2023/09/09 04:28:43;;;;;;;28.05;25.15;;;;;;;;;;5057656;28;20435;-61
2023/09/09 04:31:08;;;;;;;24.80;22.13;;;;;;;;;;5058686;28;20064;-62
2023/09/09 04:33:33;;;;;;;28.47;25.40;;;;;;;;;;5070340;28;20333;-62
2023/09/09 04:35:59;;;;;;;23.03;20.77;;;;;;;;;;5069015;28;20033;-62
2023/09/09 04:38:24;;;;;;;25.92;22.65;;;;;;;;;;5070033;28;20500;-62
2023/09/09 04:40:49;;;;;;;26.57;22.80;;;;;;;;;;5067268;28;20037;-62
2023/09/09 04:43:14;;;;;;;27.57;24.60;;;;;;;;;;5050885;28;20419;-62
2023/09/09 04:45:39;;;;;;;25.90;23.08;;;;;;;;;;5049465;28;20033;-62
2023/09/09 04:48:05;;;;;;;24.70;22.20;;;;;;;;;;5054025;28;20020;-62
2023/09/09 04:50:30;;;;;;;27.67;24.73;;;;;;;;;;5043757;28;20033;-63
2023/09/09 04:52:55;;;;;;;24.63;21.92;;;;;;;;;;5068601;28;20096;-62
2023/09/09 04:55:20;;;;;;;22.08;19.25;;;;;;;;;;5067959;28;20039;-60
2023/09/09 04:57:45;;;;;;;25.00;19.63;;;;;;;;;;5066762;28;20017;-60
2023/09/09 05:00:11;;;;;;;21.17;18.40;;;;;;;;;;5049256;28;20012;-61
2023/09/09 05:02:37;;;;;;;23.95;20.48;;;;;;;;;;5067518;28;20144;-61
2023/09/09 05:05:04;;;;;;;23.10;20.60;;;;;;;;;;5069662;28;20463;-60
2023/09/09 05:07:31;;;;;;;21.83;19.52;;;;;;;;;;5047859;28;20036;-61
2023/09/09 05:09:56;;;;;;;23.05;20.60;;;;;;;;;;5057935;28;20039;-63
2023/09/09 05:12:21;;;;;;;30.03;24.53;;;;;;;;;;5066596;28;20104;-62
2023/09/09 05:14:46;;;;;;;28.52;25.55;;;;;;;;;;5051638;28;20467;-61
2023/09/09 05:17:12;;;;;;;27.67;24.77;;;;;;;;;;5048933;28;20047;-66
2023/09/09 05:19:37;;;;;;;29.30;26.15;;;;;;;;;;5060930;28;20013;-66
2023/09/09 05:22:03;;;;;;;31.53;24.20;;;;;;;;;;5049197;28;20116;-65
2023/09/09 05:24:28;;;;;;;29.23;23.60;;;;;;;;;;5061416;28;20476;-62
2023/09/09 05:26:53;;;;;;;25.05;21.23;;;;;;;;;;5050204;28;20044;-62
2023/09/09 05:29:18;;;;;;;25.83;22.38;;;;;;;;;;5048437;28;20071;-63
2023/09/09 05:31:43;;;;;;;24.90;22.17;;;;;;;;;;5058372;28;20492;-62
2023/09/09 05:34:08;;;;;;;27.85;23.05;;;;;;;;;;5069037;28;20020;-58
2023/09/09 05:36:33;;;;;;;28.13;25.23;;;;;;;;;;5065872;28;20028;-58
2023/09/09 05:38:59;;;;;;;27.30;24.40;;;;;;;;;;5067727;28;20106;-59
2023/09/09 05:41:29;;;;;;;32.50;27.42;;;;;;;;;;5065726;28;20102;-57
2023/09/09 05:43:54;;;;;;;33.10;29.58;;;;;;;;;;5060241;28;20585;-57
2023/09/09 05:46:19;;;;;;;31.02;26.30;;;;;;;;;;5065950;28;20037;-56
2023/09/09 05:48:44;;;;;;;32.35;26.60;;;;;;;;;;5068684;28;20552;-57
2023/09/09 05:51:09;;;;;;;32.25;25.92;;;;;;;;;;5066510;28;20063;-57
2023/09/09 05:53:34;;;;;;;26.63;22.80;;;;;;;;;;5052968;28;20438;-57
2023/09/09 05:56:00;;;;;;;31.30;23.13;;;;;;;;;;5051534;28;21005;-57
2023/09/09 05:58:25;;;;;;;26.50;23.52;;;;;;;;;;5049446;28;20427;-58
2023/09/09 06:00:50;;;;;;;34.28;28.27;;;;;;;;;;5051814;28;20169;-57
2023/09/09 06:03:15;;;;;;;35.53;31.45;;;;;;;;;;5052751;28;20036;-58
2023/09/09 06:05:40;;;;;;;30.27;27.33;;;;;;;;;;5047352;28;20029;-57
2023/09/09 06:08:05;;;;;;;33.60;24.60;;;;;;;;;;5039815;28;20017;-58
2023/09/09 06:10:31;;;;;;;35.67;30.53;;;;;;;;;;5048196;28;21171;-58
2023/09/09 06:12:56;;;;;;;40.30;31.60;;;;;;;;;;5068066;28;20016;-57
2023/09/09 06:15:21;;;;;;;37.25;32.20;;;;;;;;;;5067504;28;20455;-58
2023/09/09 06:17:46;;;;;;;43.87;34.40;;;;;;;;;;5067693;28;20040;-58
2023/09/09 06:20:14;;;;;;;37.72;33.60;;;;;;;;;;5069437;28;20423;-57
2023/09/09 06:22:39;;;;;;;38.85;34.55;;;;;;;;;;5046853;28;20044;-60
2023/09/09 06:25:04;;;;;;;34.42;30.92;;;;;;;;;;5047283;28;20021;-57
2023/09/09 06:27:29;;;;;;;41.55;32.50;;;;;;;;;;5065545;28;20040;-57
2023/09/09 06:29:54;;;;;;;42.33;32.73;;;;;;;;;;5069444;28;20017;-57
2023/09/09 06:32:19;;;;;;;41.35;34.65;;;;;;;;;;5067172;28;20466;-57
2023/09/09 06:34:45;;;;;;;33.50;29.73;;;;;;;;;;5068877;28;20430;-58
2023/09/09 06:37:10;;;;;;;35.55;31.75;;;;;;;;;;5059221;28;20036;-58
2023/09/09 06:39:35;;;;;;;32.38;28.92;;;;;;;;;;5045684;28;20064;-57
2023/09/09 06:42:00;;;;;;;31.90;26.87;;;;;;;;;;5046274;28;20037;-58
2023/09/09 06:44:26;;;;;;;34.03;28.15;;;;;;;;;;5068400;28;20016;-57
2023/09/09 06:46:51;;;;;;;35.30;29.20;;;;;;;;;;5070715;28;20036;-57
2023/09/09 06:49:17;;;;;;;29.50;26.37;;;;;;;;;;5071871;28;20023;-57
2023/09/09 06:51:42;;;;;;;31.30;25.58;;;;;;;;;;5070883;28;20546;-58
2023/09/09 06:54:07;;;;;;;32.33;26.57;;;;;;;;;;5072201;28;20123;-58
2023/09/09 06:56:32;;;;;;;28.17;25.27;;;;;;;;;;5067120;28;20033;-59
2023/09/09 06:58:57;;;;;;;27.83;25.08;;;;;;;;;;5052306;28;20388;-58
2023/09/09 07:01:22;;;;;;;28.63;25.08;;;;;;;;;;5060180;28;20108;-59
2023/09/09 07:03:47;;;;;;;28.85;25.95;;;;;;;;;;5071285;28;20071;-60
2023/09/09 07:06:13;;;;;;;31.58;24.63;;;;;;;;;;5070038;28;20364;-58
2023/09/09 07:08:40;;;;;;;38.53;26.40;;;;;;;;;;5071639;28;20032;-59
2023/09/09 07:11:05;;;;;;;28.05;23.85;;;;;;;;;;5067773;28;20036;-58
2023/09/09 07:13:30;;;;;;;31.25;24.35;;;;;;;;;;5053893;28;20107;-58
2023/09/09 07:15:55;;;;;;;28.52;25.35;;;;;;;;;;5050551;28;20025;-58
2023/09/09 07:18:21;;;;;;;42.42;26.13;;;;;;;;;;5052130;28;20061;-58
2023/09/09 07:20:46;;;;;;;25.88;23.15;;;;;;;;;;5056986;28;20061;-58
2023/09/09 07:23:12;;;;;;;27.45;23.83;;;;;;;;;;5051507;28;20049;-59
2023/09/09 07:25:37;;;;;;;28.40;22.42;;;;;;;;;;5054864;28;20039;-58
2023/09/09 07:28:03;;;;;;;24.38;21.77;;;;;;;;;;5051863;28;20095;-58
2023/09/09 07:30:28;;;;;;;26.83;22.88;;;;;;;;;;5049950;28;20032;-59
2023/09/09 07:32:53;;;;;;;23.67;20.90;;;;;;;;;;5051897;28;20025;-60
2023/09/09 07:35:18;;;;;;;24.73;22.23;;;;;;;;;;5050536;28;20017;-59
2023/09/09 07:37:43;;;;;;;24.92;22.25;;;;;;;;;;5051128;28;20758;-59
2023/09/09 07:40:09;;;;;;;26.42;21.73;;;;;;;;;;5051468;28;20454;-59
2023/09/09 07:42:34;;;;;;;23.92;21.38;;;;;;;;;;5069283;28;20074;-58
2023/09/09 07:44:59;;;;;;;29.85;24.10;;;;;;;;;;5051043;28;20032;-59
2023/09/09 07:47:24;;;;;;;24.20;21.65;;;;;;;;;;5068309;28;20515;-58
2023/09/09 07:49:50;;;;;;;29.50;22.30;;;;;;;;;;5070572;28;20028;-59
2023/09/09 07:52:15;;;;;;;31.15;23.60;;;;;;;;;;5069000;28;20044;-59
2023/09/09 07:54:40;;;;;;;29.07;22.47;;;;;;;;;;5071334;28;20025;-59
2023/09/09 07:57:05;;;;;;;36.35;24.70;;;;;;;;;;5052123;28;20048;-58
2023/09/09 07:59:31;;;;;;;34.10;26.30;;;;;;;;;;5055309;28;20043;-59
2023/09/09 08:01:56;;;;;;;29.25;24.42;;;;;;;;;;5069697;28;20032;-59
2023/09/09 08:04:21;;;;;;;31.08;27.98;;;;;;;;;;5071682;28;20028;-59
2023/09/09 08:06:47;;;;;;;31.83;28.45;;;;;;;;;;5060544;28;20408;-59
2023/09/09 08:09:12;;;;;;;31.80;28.27;;;;;;;;;;5070980;28;20021;-65
2023/09/09 08:11:37;;;;;;;31.48;27.30;;;;;;;;;;5069123;28;20036;-59
2023/09/09 08:14:03;;;;;;;28.45;24.90;;;;;;;;;;5070686;28;20040;-59
2023/09/09 08:16:28;;;;;;;29.73;26.60;;;;;;;;;;5069209;28;20128;-59
2023/09/09 08:18:53;;;;;;;37.63;27.67;;;;;;;;;;5070922;28;20089;-59
2023/09/09 08:21:18;;;;;;;31.60;27.27;;;;;;;;;;5068537;28;20573;-59
2023/09/09 08:23:43;;;;;;;36.37;25.90;;;;;;;;;;5069325;28;20059;-59
2023/09/09 08:26:11;;;;;;;34.15;25.65;;;;;;;;;;5060858;28;20068;-59
2023/09/09 08:28:36;;;;;;;33.97;27.90;;;;;;;;;;5049758;28;20028;-59
2023/09/09 08:31:01;;;;;;;31.38;27.30;;;;;;;;;;5054826;28;20094;-59
2023/09/09 08:33:26;;;;;;;35.13;27.43;;;;;;;;;;5069359;28;20054;-59
2023/09/09 08:35:56;;;;;;;28.73;25.67;;;;;;;;;;5070152;28;20078;-59
2023/09/09 08:38:21;;;;;;;30.83;27.58;;;;;;;;;;5055618;28;20061;-59
2023/09/09 08:40:52;;;;;;;30.58;27.33;;;;;;;;;;5050149;28;20021;-59
2023/09/09 08:43:19;;;;;;;36.08;28.85;;;;;;;;;;5067003;28;20032;-59
2023/09/09 08:46:04;;;;;;;32.92;29.35;;;;;;;;;;5070004;28;20025;-59
2023/09/09 08:48:32;;;;;;;36.33;28.40;;;;;;;;;;5068257;28;20105;-60
2023/09/09 08:50:59;;;;;;;;;;;;;;;;;;5071046;28;20030;-59
2023/09/09 08:53:25;;;;;;;31.88;27.02;;;;;;;;;;5056693;28;20473;-67
2023/09/09 08:55:51;;;;;;;37.40;30.55;;;;;;;;;;5050216;28;20024;-59
2023/09/09 08:58:16;;;;;;;34.42;28.52;;;;;;;;;;5066681;28;20045;-59
2023/09/09 09:00:42;;;;;;;37.53;28.57;;;;;;;;;;5069340;28;20028;-59
2023/09/09 09:03:07;;;;;;;30.60;27.30;;;;;;;;;;5068248;28;20033;-59
2023/09/09 09:05:33;;;;;;;34.83;28.73;;;;;;;;;;5067135;28;20063;-59
2023/09/09 09:07:59;;;;;;;31.42;25.48;;;;;;;;;;5053054;28;20082;-59
2023/09/09 09:10:25;;;;;;;31.40;28.17;;;;;;;;;;5050020;28;20027;-59
2023/09/09 09:12:50;;;;;;;32.45;29.02;;;;;;;;;;5062514;28;20032;-59
2023/09/09 09:15:15;;;;;;;44.90;27.30;;;;;;;;;;5069277;28;20591;-59
2023/09/09 09:17:42;;;;;;;36.03;26.05;;;;;;;;;;5068469;28;20123;-59
2023/09/09 09:20:07;;;;;;;30.77;27.05;;;;;;;;;;5069023;28;20433;-59
2023/09/09 09:22:32;;;;;;;32.28;28.90;;;;;;;;;;5067889;28;20041;-59
2023/09/09 09:24:57;;;;;;;28.83;25.90;;;;;;;;;;5069995;28;20017;-59
2023/09/09 09:27:23;;;;;;;34.47;28.60;;;;;;;;;;5068685;28;20446;-59
2023/09/09 09:29:48;;;;;;;29.77;26.58;;;;;;;;;;5069444;28;20027;-60
2023/09/09 09:32:15;;;;;;;32.70;28.70;;;;;;;;;;5057833;28;20144;-59
2023/09/09 09:34:41;;;;;;;34.25;28.67;;;;;;;;;;5069328;28;20029;-59
2023/09/09 09:37:10;;;;;;;30.97;27.67;;;;;;;;;;5058186;28;20032;-59
2023/09/09 09:39:35;;;;;;;32.63;29.00;;;;;;;;;;5067419;28;20502;-59
2023/09/09 09:42:01;;;;;;;34.35;28.83;;;;;;;;;;5068037;28;20487;-59
2023/09/09 09:44:26;;;;;;;31.40;27.27;;;;;;;;;;5068215;28;20612;-59
2023/09/09 09:46:59;;;;;;;26.50;23.25;;;;;;;;;;5066963;28;20032;-59
2023/09/09 09:49:31;;;;;;;40.00;27.58;;;;;;;;;;5069192;28;20032;-59
2023/09/09 09:51:56;;;;;;;31.30;24.77;;;;;;;;;;5067856;28;20093;-61
2023/09/09 09:54:22;;;;;;;31.80;26.53;;;;;;;;;;5067077;28;20490;-60
2023/09/09 09:56:47;;;;;;;34.03;29.52;;;;;;;;;;5059083;28;20041;-61
2023/09/09 09:59:12;;;;;;;31.40;28.05;;;;;;;;;;5048141;28;20021;-59
2023/09/09 10:01:38;;;;;;;34.25;27.58;;;;;;;;;;5050034;28;20373;-59
2023/09/09 10:04:05;;;;;;;35.55;28.25;;;;;;;;;;5069348;28;20025;-59
2023/09/09 10:06:33;;;;;;;28.83;25.95;;;;;;;;;;5066941;28;20129;-59
2023/09/09 10:08:58;;;;;;;;;;;;;;;;;;5068302;28;20377;-60
2023/09/09 10:11:25;;;;;;;31.38;26.13;;;;;;;;;;5067646;28;19931;-59
2023/09/09 10:14:01;;;;;;;28.20;22.88;;;;;;;;;;5062655;28;20056;-59
2023/09/09 10:16:28;;;;;;;35.13;25.73;;;;;;;;;;5063779;28;20387;-59
2023/09/09 10:18:54;;;;;;;29.20;24.17;;;;;;;;;;5034214;28;20042;-59
2023/09/09 10:21:20;;;;;;;32.55;26.38;;;;;;;;;;5047561;28;20013;-58
2023/09/09 10:23:45;;;;;;;40.88;26.92;;;;;;;;;;5051802;28;20095;-59
2023/09/09 10:26:11;;;;;;;23.73;21.23;;;;;;;;;;5061954;28;20092;-58
2023/09/09 10:28:37;;;;;;;28.17;24.48;;;;;;;;;;5054909;28;20392;-59
2023/09/09 10:31:03;;;;;;;22.85;19.10;;;;;;;;;;5058326;28;20093;-59
2023/09/09 10:33:28;;;;;;;27.92;17.13;;;;;;;;;;5066589;28;20411;-59
2023/09/09 10:35:53;;;;;;;20.05;16.67;;;;;;;;;;5058159;28;20036;-59
2023/09/09 10:38:19;;;;;;;23.43;18.90;;;;;;;;;;5051792;28;20049;-59
2023/09/09 10:40:47;;;;;;;21.80;18.75;;;;;;;;;;5067401;28;20478;-60
2023/09/09 10:43:13;;;;;;;30.67;24.05;;;;;;;;;;5070757;28;20021;-59
2023/09/09 10:45:42;;;;;;;27.90;21.23;;;;;;;;;;5066451;28;20029;-60
2023/09/09 10:48:10;;;;;;;24.90;19.85;;;;;;;;;;5058985;28;20484;-60
2023/09/09 10:50:49;;;;;;;18.98;16.95;;;;;;;;;;5041554;28;20091;-59
2023/09/09 10:53:16;;;;;;;23.67;18.02;;;;;;;;;;5070601;28;20012;-59
2023/09/09 10:55:41;;;;;;;23.95;16.38;;;;;;;;;;5070754;28;20045;-59
2023/09/09 10:58:07;;;;;;;21.50;17.10;;;;;;;;;;5070705;28;20513;-61
2023/09/09 11:00:39;;;;;;;23.35;18.67;;;;;;;;;;5069870;28;20024;-59
2023/09/09 11:03:22;;;;;;;21.45;19.25;;;;;;;;;;5072166;28;20387;-59
2023/09/09 11:05:57;;;;;;;20.90;18.80;;;;;;;;;;5070290;28;20060;-61
2023/09/09 11:08:35;;;;;;;22.45;19.75;;;;;;;;;;5071264;28;20024;-59
2023/09/09 11:11:11;;;;;;;19.75;17.10;;;;;;;;;;5070730;28;20164;-60
2023/09/09 11:13:40;;;;;;;26.83;21.20;;;;;;;;;;5071208;28;20028;-60
2023/09/09 11:16:06;;;;;;;18.85;16.48;;;;;;;;;;5069967;28;20078;-60
2023/09/09 11:18:32;;;;;;;24.05;17.65;;;;;;;;;;5071964;28;20013;-60
2023/09/09 11:20:58;;;;;;;20.55;16.20;;;;;;;;;;5065986;28;20036;-60
2023/09/09 11:23:23;;;;;;;22.38;19.27;;;;;;;;;;5065374;28;20020;-60
2023/09/09 11:25:48;;;;;;;20.77;17.83;;;;;;;;;;5069217;28;20033;-60
2023/09/09 11:28:13;;;;;;;18.52;16.30;;;;;;;;;;5069672;28;20131;-59
2023/09/09 11:30:42;;;;;;;20.33;15.77;;;;;;;;;;5069706;28;20032;-61
2023/09/09 11:33:07;;;;;;;18.17;15.05;;;;;;;;;;5071221;28;20093;-60
2023/09/09 11:35:32;;;;;;;22.55;16.15;;;;;;;;;;5067617;28;20071;-59
2023/09/09 11:38:01;;;;;;;15.93;13.95;;;;;;;;;;5071923;28;20028;-59
2023/09/09 11:40:26;;;;;;;22.42;19.35;;;;;;;;;;5069996;28;20053;-60
2023/09/09 11:42:51;;;;;;;25.95;19.65;;;;;;;;;;5071984;28;20112;-60
2023/09/09 11:45:17;;;;;;;22.23;19.83;;;;;;;;;;5058791;28;20134;-60
2023/09/09 11:47:42;;;;;;;21.70;18.55;;;;;;;;;;5066129;28;20469;-60
2023/09/09 11:50:07;;;;;;;21.83;19.53;;;;;;;;;;5070732;28;20021;-61
2023/09/09 11:52:32;;;;;;;19.92;17.65;;;;;;;;;;5070136;28;20556;-60
2023/09/09 11:54:57;;;;;;;24.38;20.25;;;;;;;;;;5071529;28;20091;-60
2023/09/09 11:57:23;;;;;;;16.63;14.93;;;;;;;;;;5069837;28;20483;-60
2023/09/09 11:59:49;;;;;;;19.13;15.40;;;;;;;;;;5071391;28;20027;-60
2023/09/09 12:02:18;;;;;;;16.07;14.43;;;;;;;;;;5070016;28;20391;-60
2023/09/09 12:04:56;;;;;;;19.35;15.65;;;;;;;;;;5071293;28;20104;-60
2023/09/09 12:07:23;;;;;;;18.65;15.13;;;;;;;;;;5070141;28;20087;-61
2023/09/09 12:09:48;;;;;;;18.40;15.63;;;;;;;;;;5071120;28;20027;-60
2023/09/09 12:12:14;;;;;;;18.08;16.20;;;;;;;;;;5069506;28;20036;-60
2023/09/09 12:14:39;;;;;;;15.55;13.93;;;;;;;;;;5059054;28;20553;-60
2023/09/09 12:17:05;;;;;;;15.10;11.93;;;;;;;;;;5067786;28;20041;-60
2023/09/09 12:19:30;;;;;;;18.43;9.67;;;;;;;;;;5070114;28;21849;-60
2023/09/09 12:21:55;;;;;;;12.80;10.03;;;;;;;;;;5068721;28;20036;-60
2023/09/09 12:24:20;;;;;;;13.82;11.23;;;;;;;;;;5071129;28;20103;-60
2023/09/09 12:26:49;;;;;;;16.60;14.37;;;;;;;;;;5068622;28;20040;-60
2023/09/09 12:29:15;;;;;;;24.30;14.18;;;;;;;;;;5070322;28;20028;-61
2023/09/09 12:31:51;;;;;;;18.70;14.75;;;;;;;;;;5069117;28;20093;-61
2023/09/09 12:34:17;;;;;;;17.77;15.97;;;;;;;;;;5069866;28;20031;-60
2023/09/09 12:36:42;;;;;;;16.70;15.00;;;;;;;;;;5067060;28;20040;-60
2023/09/09 12:39:09;;;;;;;22.13;15.90;;;;;;;;;;5070286;28;20501;-60
2023/09/09 12:41:34;;;;;;;15.40;13.80;;;;;;;;;;5068600;28;20036;-60
2023/09/09 12:44:06;;;;;;;22.23;16.00;;;;;;;;;;5070498;28;20025;-60
2023/09/09 12:46:31;;;;;;;17.60;14.45;;;;;;;;;;5068805;28;20036;-69
2023/09/09 12:48:57;;;;;;;18.60;16.63;;;;;;;;;;5070354;28;20099;-60
2023/09/09 12:51:25;;;;;;;22.42;15.85;;;;;;;;;;5068969;28;20036;-60
2023/09/09 12:53:51;;;;;;;17.40;15.35;;;;;;;;;;5069840;28;20024;-60
2023/09/09 12:56:16;;;;;;;22.05;16.35;;;;;;;;;;5068698;28;20028;-60
2023/09/09 12:58:41;;;;;;;15.75;14.15;;;;;;;;;;5070240;28;20069;-58
2023/09/09 13:01:08;;;;;;;18.83;14.05;;;;;;;;;;5068712;28;20028;-58
2023/09/09 13:03:34;;;;;;;26.65;16.52;;;;;;;;;;5069550;28;20579;-58
2023/09/09 13:05:59;;;;;;;14.13;10.88;;;;;;;;;;5068820;28;20036;-59
2023/09/09 13:08:24;;;;;;;12.45;9.80;;;;;;;;;;5070439;28;20387;-59
2023/09/09 13:10:49;;;;;;;12.83;11.63;;;;;;;;;;5068279;28;20036;-60
2023/09/09 13:13:14;;;;;;;12.67;10.80;;;;;;;;;;5069658;28;20567;-61
2023/09/09 13:15:40;;;;;;;15.50;11.63;;;;;;;;;;5068177;28;20044;-60
2023/09/09 13:18:05;;;;;;;14.52;12.82;;;;;;;;;;5069882;28;20041;-61
2023/09/09 13:20:31;;;;;;;14.70;10.95;;;;;;;;;;5068166;28;20021;-68
2023/09/09 13:22:56;;;;;;;14.90;10.90;;;;;;;;;;5070163;28;20024;-59
2023/09/09 13:25:21;;;;;;;14.90;12.32;;;;;;;;;;5068336;28;20012;-58
2023/09/09 13:27:46;;;;;;;13.77;10.75;;;;;;;;;;5069789;28;20021;-59
2023/09/09 13:30:12;;;;;;;10.13;9.13;;;;;;;;;;5068738;28;20424;-59
2023/09/09 13:32:37;;;;;;;11.57;10.32;;;;;;;;;;5069693;28;20012;-59
2023/09/09 13:35:02;;;;;;;10.70;9.60;;;;;;;;;;5069991;28;20066;-59
2023/09/09 13:37:31;;;;;;;14.18;11.55;;;;;;;;;;5068082;28;20458;-59
2023/09/09 13:39:56;;;;;;;22.95;11.20;;;;;;;;;;5069170;28;20120;-59
2023/09/09 13:42:21;;;;;;;12.23;10.93;;;;;;;;;;5068332;28;20666;-59
2023/09/09 13:44:47;;;;;;;12.97;9.80;;;;;;;;;;5069585;28;20025;-59
2023/09/09 13:47:12;;;;;;;13.60;10.52;;;;;;;;;;5067998;28;20043;-60
2023/09/09 13:49:38;;;;;;;11.37;10.30;;;;;;;;;;5071863;28;20032;-60
2023/09/09 13:52:04;;;;;;;13.65;11.85;;;;;;;;;;5072476;28;20518;-60
2023/09/09 13:54:29;;;;;;;8.88;8.05;;;;;;;;;;5073224;28;20025;-61
2023/09/09 13:56:56;;;;;;;12.73;9.30;;;;;;;;;;5072039;28;20476;-59
2023/09/09 13:59:21;;;;;;;14.00;11.10;;;;;;;;;;5074144;28;20375;-59
2023/09/09 14:01:46;;;;;;;10.27;9.20;;;;;;;;;;5072337;28;20025;-59
2023/09/09 14:04:11;;;;;;;11.20;8.67;;;;;;;;;;5073422;28;20108;-59
2023/09/09 14:06:36;;;;;;;10.05;9.05;;;;;;;;;;5072169;28;20039;-59
2023/09/09 14:09:01;;;;;;;10.73;9.73;;;;;;;;;;5073895;28;20044;-59
2023/09/09 14:11:26;;;;;;;9.33;8.20;;;;;;;;;;5071375;28;20032;-60